createdAt,value
2023-05-14T00:02:21.378Z,9.90
2023-05-14T00:04:49.705Z,9.07
2023-05-14T00:07:19.164Z,9.67
2023-05-14T00:09:47.363Z,9.80
2023-05-14T00:12:15.595Z,9.10
2023-05-14T00:14:43.822Z,9.20
2023-05-14T00:17:11.969Z,8.97
2023-05-14T00:19:41.883Z,8.43
2023-05-14T00:22:10.103Z,9.80
2023-05-14T00:24:39.651Z,9.93
2023-05-14T00:27:07.969Z,10.47
2023-05-14T00:29:36.117Z,9.13
2023-05-14T00:32:04.704Z,10.60
2023-05-14T00:34:33.182Z,9.60
2023-05-14T00:37:01.489Z,9.47
2023-05-14T00:39:29.639Z,10.97
2023-05-14T00:41:59.222Z,9.73
2023-05-14T00:44:27.520Z,10.70
2023-05-14T00:46:55.973Z,10.60
2023-05-14T00:49:24.528Z,10.30
2023-05-14T00:51:53.298Z,13.00
2023-05-14T00:54:22.236Z,12.83
2023-05-14T00:56:50.444Z,10.03
2023-05-14T00:59:19.936Z,10.13
2023-05-14T01:01:48.250Z,9.87
2023-05-14T01:04:16.852Z,10.60
2023-05-14T01:06:55.713Z,10.07
2023-05-14T01:09:27.953Z,11.00
2023-05-14T01:12:01.792Z,11.40
2023-05-14T01:14:37.530Z,11.80
2023-05-14T01:17:06.235Z,12.30
2023-05-14T01:19:40.643Z,10.87
2023-05-14T01:22:10.616Z,10.70
2023-05-14T01:24:38.922Z,11.90
2023-05-14T01:27:11.523Z,10.60
2023-05-14T01:29:44.333Z,12.27
2023-05-14T01:32:14.412Z,11.50
2023-05-14T01:34:44.075Z,11.80
2023-05-14T01:37:14.706Z,11.50
2023-05-14T01:39:43.661Z,11.70
2023-05-14T01:42:12.033Z,12.43
2023-05-14T01:44:40.656Z,12.77
2023-05-14T01:47:08.803Z,12.30
2023-05-14T01:49:37.617Z,10.43
2023-05-14T01:52:06.432Z,11.83
2023-05-14T01:54:35.960Z,13.43
2023-05-14T01:57:04.647Z,12.67
2023-05-14T01:59:32.880Z,11.20
2023-05-14T02:02:01.105Z,12.00
2023-05-14T02:04:29.699Z,11.50
2023-05-14T02:06:58.111Z,13.37
2023-05-14T02:09:26.358Z,13.13
2023-05-14T02:11:56.175Z,11.50
2023-05-14T02:14:24.370Z,10.80
2023-05-14T02:16:52.527Z,10.90
2023-05-14T02:19:20.715Z,11.03
2023-05-14T02:21:50.279Z,11.40
2023-05-14T02:24:18.485Z,11.07
2023-05-14T02:26:46.640Z,11.67
2023-05-14T02:29:16.159Z,11.00
2023-05-14T02:31:44.487Z,11.37
2023-05-14T02:34:12.732Z,9.67
2023-05-14T02:36:41.096Z,10.63
2023-05-14T02:39:09.256Z,10.87
2023-05-14T02:41:37.459Z,12.10
2023-05-14T02:44:06.108Z,11.40
2023-05-14T02:46:36.325Z,13.53
2023-05-14T02:49:04.507Z,11.13
2023-05-14T02:51:32.775Z,11.30
2023-05-14T02:54:01.016Z,11.80
2023-05-14T02:56:29.157Z,12.73
2023-05-14T02:58:57.298Z,11.60
2023-05-14T03:01:25.880Z,10.70
2023-05-14T03:03:55.967Z,10.63
2023-05-14T03:06:24.129Z,11.53
2023-05-14T03:08:52.280Z,13.23
2023-05-14T03:11:20.681Z,11.20
2023-05-14T03:13:48.850Z,11.37
2023-05-14T03:16:17.076Z,14.10
2023-05-14T03:18:45.582Z,12.33
2023-05-14T03:21:15.563Z,10.47
2023-05-14T03:23:44.772Z,10.27
2023-05-14T03:26:12.892Z,11.30
2023-05-14T03:28:41.194Z,15.50
2023-05-14T03:31:09.456Z,10.07
2023-05-14T03:33:38.582Z,12.37
2023-05-14T03:36:07.260Z,11.43
2023-05-14T03:38:36.857Z,10.03
2023-05-14T03:41:05.151Z,11.70
2023-05-14T03:43:33.314Z,12.37
2023-05-14T03:46:01.461Z,12.33
2023-05-14T03:48:29.919Z,10.93
2023-05-14T03:50:58.171Z,13.30
2023-05-14T03:53:26.339Z,10.43
2023-05-14T03:55:55.913Z,12.40
2023-05-14T03:58:24.175Z,11.33
2023-05-14T04:00:52.918Z,11.00
2023-05-14T04:03:21.209Z,9.50
2023-05-14T04:05:49.526Z,11.30
2023-05-14T04:08:17.687Z,10.73
2023-05-14T04:10:46.276Z,15.33
2023-05-14T04:13:15.798Z,11.00
2023-05-14T04:15:44.851Z,10.07
2023-05-14T04:18:13.053Z,11.73
2023-05-14T04:20:41.513Z,12.10
2023-05-14T04:23:10.142Z,9.70
2023-05-14T04:25:38.328Z,12.70
2023-05-14T04:28:06.781Z,10.90
2023-05-14T04:30:36.294Z,10.77
2023-05-14T04:33:04.933Z,9.33
2023-05-14T04:35:33.084Z,11.40
2023-05-14T04:38:01.314Z,10.77
2023-05-14T04:40:31.097Z,11.33
2023-05-14T04:42:59.443Z,12.00
2023-05-14T04:45:27.619Z,11.00
2023-05-14T04:47:57.129Z,11.40
2023-05-14T04:50:25.824Z,11.80
2023-05-14T04:52:55.785Z,10.80
2023-05-14T04:55:24.207Z,10.70
2023-05-14T04:57:52.430Z,10.87
2023-05-14T05:00:22.026Z,9.27
2023-05-14T05:02:50.709Z,11.40
2023-05-14T05:05:20.689Z,11.13
2023-05-14T05:07:48.995Z,10.73
2023-05-14T05:10:17.165Z,13.17
2023-05-14T05:12:45.346Z,10.83
2023-05-14T05:15:13.571Z,10.63
2023-05-14T05:17:41.945Z,10.27
2023-05-14T05:20:10.904Z,10.03
2023-05-14T05:22:40.636Z,11.57
2023-05-14T05:25:09.403Z,10.30
2023-05-14T05:27:37.537Z,10.13
2023-05-14T05:30:07.332Z,16.03
2023-05-14T05:32:36.142Z,11.73
2023-05-14T05:35:04.964Z,10.50
2023-05-14T05:37:33.127Z,11.83
2023-05-14T05:40:02.715Z,10.40
2023-05-14T05:42:30.946Z,12.10
2023-05-14T05:44:59.130Z,11.87
2023-05-14T05:47:27.326Z,11.00
2023-05-14T05:49:55.506Z,10.70
2023-05-14T05:52:24.182Z,9.80
2023-05-14T05:54:52.481Z,11.13
2023-05-14T05:57:25.663Z,11.13
2023-05-14T05:59:54.541Z,11.03
2023-05-14T06:02:22.923Z,13.50
2023-05-14T06:04:51.209Z,10.70
2023-05-14T06:07:19.407Z,9.87
2023-05-14T06:09:47.869Z,13.23
2023-05-14T06:12:16.143Z,12.33
2023-05-14T06:14:45.674Z,10.30
2023-05-14T06:17:13.847Z,10.03
2023-05-14T06:19:42.043Z,9.53
2023-05-14T06:22:10.318Z,9.97
2023-05-14T06:24:38.500Z,17.03
2023-05-14T06:27:07.087Z,13.40
2023-05-14T06:29:35.239Z,12.30
2023-05-14T06:32:05.652Z,14.50
2023-05-14T06:34:34.216Z,9.73
2023-05-14T06:37:04.142Z,10.20
2023-05-14T06:39:32.398Z,9.30
2023-05-14T06:42:00.659Z,10.00
2023-05-14T06:44:28.873Z,10.13
2023-05-14T06:46:57.151Z,9.30
2023-05-14T06:49:26.625Z,14.03
2023-05-14T06:51:54.794Z,9.47
2023-05-14T06:54:23.163Z,8.70
2023-05-14T06:56:51.282Z,10.00
2023-05-14T06:59:19.499Z,9.20
2023-05-14T07:01:47.761Z,11.00
2023-05-14T07:04:16.001Z,9.23
2023-05-14T07:06:46.029Z,14.50
2023-05-14T07:09:14.399Z,9.13
2023-05-14T07:11:42.528Z,8.77
2023-05-14T07:14:10.699Z,14.43
2023-05-14T07:16:38.899Z,9.87
2023-05-14T07:19:07.216Z,10.27
2023-05-14T07:21:36.136Z,9.67
2023-05-14T07:24:06.782Z,11.83
2023-05-14T07:26:35.215Z,8.60
2023-05-14T07:29:03.444Z,8.10
2023-05-14T07:31:31.655Z,9.37
2023-05-14T07:34:00.005Z,8.73
2023-05-14T07:36:28.375Z,9.20
2023-05-14T07:38:56.601Z,8.80
2023-05-14T07:41:26.104Z,8.80
2023-05-14T07:43:54.298Z,9.03
2023-05-14T07:46:23.856Z,8.70
2023-05-14T07:48:52.000Z,8.80
2023-05-14T07:51:20.168Z,10.73
2023-05-14T07:53:48.358Z,9.53
2023-05-14T07:56:16.865Z,10.73
2023-05-14T07:58:46.368Z,8.80
2023-05-14T08:01:14.640Z,9.30
2023-05-14T08:03:42.900Z,9.20
2023-05-14T08:06:11.210Z,9.60
2023-05-14T08:08:39.402Z,8.10
2023-05-14T08:11:07.665Z,8.13
2023-05-14T08:13:36.160Z,7.80
2023-05-14T08:16:06.304Z,8.53
2023-05-14T08:18:34.596Z,6.80
2023-05-14T08:21:03.796Z,10.33
2023-05-14T08:23:32.167Z,8.00
2023-05-14T08:26:00.414Z,7.90
2023-05-14T08:28:28.694Z,7.43
2023-05-14T08:30:57.025Z,6.37
2023-05-14T08:33:26.670Z,7.33
2023-05-14T08:35:54.989Z,11.33
2023-05-14T08:38:23.169Z,8.23
2023-05-14T08:40:57.286Z,5.93
2023-05-14T08:43:28.199Z,6.10
2023-05-14T08:46:02.217Z,5.37
2023-05-14T08:48:34.470Z,4.93
2023-05-14T08:51:03.277Z,4.30
2023-05-14T08:53:32.108Z,3.60
2023-05-14T08:56:02.680Z,4.03
2023-05-14T08:58:31.106Z,3.83
2023-05-14T09:00:59.517Z,3.53
2023-05-14T09:03:27.999Z,4.30
2023-05-14T09:06:00.093Z,4.80
2023-05-14T09:08:28.599Z,3.87
2023-05-14T09:10:56.784Z,3.60
2023-05-14T09:13:26.915Z,5.60
2023-05-14T09:15:57.019Z,3.60
2023-05-14T09:18:26.196Z,3.87
2023-05-14T09:20:54.538Z,3.97
2023-05-14T09:23:26.706Z,10.73
2023-05-14T09:25:54.951Z,3.40
2023-05-14T09:28:24.404Z,5.10
2023-05-14T09:30:52.753Z,5.83
2023-05-14T09:33:28.172Z,7.30
2023-05-14T09:35:59.535Z,3.60
2023-05-14T09:38:33.135Z,2.37
2023-05-14T09:41:01.779Z,3.83
2023-05-14T09:43:29.993Z,3.27
2023-05-14T09:45:58.187Z,3.87
2023-05-14T09:48:26.519Z,4.73
2023-05-14T09:50:54.703Z,3.63
2023-05-14T09:53:22.874Z,5.47
2023-05-14T09:55:52.612Z,4.87
2023-05-14T09:58:20.941Z,3.80
2023-05-14T10:00:49.939Z,9.57
2023-05-14T10:03:21.171Z,3.60
2023-05-14T10:05:51.048Z,6.87
2023-05-14T10:08:25.426Z,6.00
2023-05-14T10:10:56.246Z,6.07
2023-05-14T10:13:31.335Z,14.00
2023-05-14T10:16:09.467Z,3.50
2023-05-14T10:18:48.561Z,4.40
2023-05-14T10:21:21.058Z,3.20
2023-05-14T10:23:50.357Z,3.57
2023-05-14T10:26:21.240Z,4.10
2023-05-14T10:28:51.405Z,7.23
2023-05-14T10:31:19.608Z,6.33
2023-05-14T10:33:50.166Z,5.73
2023-05-14T10:36:19.413Z,5.80
2023-05-14T10:38:47.979Z,10.87
2023-05-14T10:41:17.962Z,5.70
2023-05-14T10:43:48.405Z,3.70
2023-05-14T10:46:16.761Z,3.57
2023-05-14T10:48:45.318Z,3.17
2023-05-14T10:51:13.973Z,3.00
2023-05-14T10:53:43.714Z,4.77
2023-05-14T10:56:13.570Z,2.77
2023-05-14T10:58:44.108Z,2.93
2023-05-14T11:01:14.944Z,7.23
2023-05-14T11:03:45.902Z,4.73
2023-05-14T11:06:16.654Z,7.03
2023-05-14T11:08:46.454Z,2.60
2023-05-14T11:11:15.195Z,4.10
2023-05-14T11:13:43.883Z,3.57
2023-05-14T11:18:54.704Z,4.40
2023-05-14T11:21:23.005Z,3.30
2023-05-14T11:23:51.246Z,2.80
2023-05-14T11:26:21.488Z,4.53
2023-05-14T11:28:50.505Z,3.33
2023-05-14T11:31:20.198Z,6.53
2023-05-14T11:33:48.574Z,3.13
2023-05-14T11:36:16.790Z,5.53
2023-05-14T11:38:50.544Z,2.67
2023-05-14T11:41:20.978Z,2.40
2023-05-14T11:43:49.452Z,3.87
2023-05-14T11:46:19.049Z,6.53
2023-05-14T11:48:49.084Z,4.13
2023-05-14T11:51:17.308Z,2.57
2023-05-14T11:53:46.422Z,3.97
2023-05-14T11:56:14.657Z,2.83
2023-05-14T11:58:49.067Z,2.77
2023-05-14T12:01:17.543Z,5.77
2023-05-14T12:03:45.897Z,2.00
2023-05-14T12:06:15.553Z,3.87
2023-05-14T12:08:43.815Z,5.73
2023-05-14T12:11:11.938Z,5.60
2023-05-14T12:13:40.771Z,4.57
2023-05-14T12:16:09.021Z,6.97
2023-05-14T12:18:37.976Z,2.53
2023-05-14T12:21:08.362Z,2.60
2023-05-14T12:23:39.812Z,3.00
2023-05-14T12:26:09.152Z,2.90
2023-05-14T12:28:43.099Z,3.33
2023-05-14T12:31:11.505Z,3.73
2023-05-14T12:33:39.993Z,4.63
2023-05-14T12:38:41.618Z,5.47
2023-05-14T12:41:09.778Z,5.33
2023-05-14T12:43:37.924Z,4.73
2023-05-14T12:46:06.306Z,4.43
2023-05-14T12:48:34.489Z,3.37
2023-05-14T12:51:02.843Z,2.33
2023-05-14T12:53:31.052Z,2.80
2023-05-14T12:56:00.620Z,5.30
2023-05-14T12:58:28.860Z,2.90
2023-05-14T13:00:57.068Z,3.70
2023-05-14T13:03:26.354Z,3.80
2023-05-14T13:05:55.758Z,4.80
2023-05-14T13:08:25.150Z,2.67
2023-05-14T13:10:54.064Z,3.27
2023-05-14T13:13:23.817Z,3.13
2023-05-14T13:15:52.042Z,3.77
2023-05-14T13:18:20.338Z,6.50
2023-05-14T13:20:48.609Z,3.63
2023-05-14T13:23:16.782Z,3.97
2023-05-14T13:25:45.056Z,3.10
2023-05-14T13:28:15.024Z,2.60
2023-05-14T13:31:05.348Z,3.43
2023-05-14T13:33:34.332Z,4.83
2023-05-14T13:36:02.597Z,2.83
2023-05-14T13:38:30.876Z,2.53
2023-05-14T13:41:02.429Z,8.13
2023-05-14T13:43:31.408Z,5.50
2023-05-14T13:46:01.610Z,7.53
2023-05-14T13:48:30.958Z,3.30
2023-05-14T13:50:59.465Z,3.67
2023-05-14T13:53:27.888Z,5.17
2023-05-14T13:55:58.333Z,2.57
2023-05-14T13:58:26.969Z,3.93
2023-05-14T14:00:56.051Z,3.23
2023-05-14T14:03:25.546Z,5.23
2023-05-14T14:05:54.173Z,2.50
2023-05-14T14:08:24.369Z,2.77
2023-05-14T14:10:55.138Z,4.77
2023-05-14T14:13:24.465Z,3.20
2023-05-14T14:15:52.942Z,4.90
2023-05-14T14:18:21.202Z,3.40
2023-05-14T14:20:50.795Z,3.57
2023-05-14T14:23:19.549Z,4.43
2023-05-14T14:25:47.909Z,4.50
2023-05-14T14:28:16.089Z,4.97
2023-05-14T14:30:44.713Z,6.83
2023-05-14T14:33:12.946Z,6.00
2023-05-14T14:35:41.168Z,2.93
2023-05-14T14:38:10.667Z,3.07
2023-05-14T14:40:38.889Z,4.00
2023-05-14T14:43:07.182Z,8.83
2023-05-14T14:45:35.418Z,2.80
2023-05-14T14:48:27.149Z,4.67
2023-05-14T14:50:56.359Z,2.70
2023-05-14T14:53:25.916Z,3.60
2023-05-14T14:55:54.365Z,7.53
2023-05-14T14:58:22.972Z,7.20
2023-05-14T15:00:53.455Z,3.53
2023-05-14T15:03:22.299Z,3.20
2023-05-14T15:05:51.180Z,4.03
2023-05-14T15:08:19.472Z,4.03
2023-05-14T15:10:48.978Z,5.70
2023-05-14T15:13:17.561Z,4.40
2023-05-14T15:15:45.884Z,6.27
2023-05-14T15:18:14.111Z,3.70
2023-05-14T15:20:42.356Z,3.60
2023-05-14T15:23:11.532Z,3.70
2023-05-14T15:25:39.810Z,3.80
2023-05-14T15:28:09.308Z,3.30
2023-05-14T15:30:37.762Z,3.47
2023-05-14T15:33:08.692Z,5.10
2023-05-14T15:35:37.451Z,3.60
2023-05-14T15:38:05.608Z,3.50
2023-05-14T15:40:35.020Z,2.80
2023-05-14T15:43:03.299Z,8.40
2023-05-14T15:45:32.940Z,3.63
2023-05-14T15:48:01.217Z,7.03
2023-05-14T15:50:29.505Z,4.90
2023-05-14T15:52:57.766Z,5.63
2023-05-14T15:55:25.970Z,4.10
2023-05-14T15:57:54.140Z,4.20
2023-05-14T16:00:22.828Z,3.40
2023-05-14T16:02:52.984Z,6.80
2023-05-14T16:05:21.195Z,3.77
2023-05-14T16:07:49.410Z,16.60
2023-05-14T16:10:17.946Z,5.30
2023-05-14T16:12:46.582Z,3.57
2023-05-14T16:15:14.759Z,3.77
2023-05-14T16:17:43.200Z,3.03
2023-05-14T16:20:13.660Z,2.90
2023-05-14T16:22:42.571Z,2.80
2023-05-14T16:25:10.772Z,3.17
2023-05-14T16:27:39.043Z,2.97
2023-05-14T16:30:08.644Z,3.37
2023-05-14T16:32:36.880Z,3.90
2023-05-14T16:35:05.530Z,3.00
2023-05-14T16:37:35.443Z,3.40
2023-05-14T16:40:03.788Z,4.00
2023-05-14T16:42:31.949Z,3.93
2023-05-14T16:45:00.401Z,4.10
2023-05-14T16:47:28.585Z,3.20
2023-05-14T16:49:56.737Z,2.97
2023-05-14T16:52:24.953Z,4.20
2023-05-14T16:54:54.509Z,2.80
2023-05-14T16:57:22.671Z,6.63
2023-05-14T16:59:50.996Z,5.77
2023-05-14T17:02:19.294Z,2.97
2023-05-14T17:04:47.544Z,2.40
2023-05-14T17:07:15.722Z,3.03
2023-05-14T17:09:43.862Z,2.17
2023-05-14T17:12:14.038Z,5.50
2023-05-14T17:14:42.218Z,2.57
2023-05-14T17:17:10.379Z,3.00
2023-05-14T17:19:38.506Z,3.93
2023-05-14T17:22:07.275Z,4.60
2023-05-14T17:24:36.467Z,3.33
2023-05-14T17:27:05.166Z,4.00
2023-05-14T17:29:34.638Z,4.57
2023-05-14T17:32:03.595Z,3.97
2023-05-14T17:34:31.866Z,3.33
2023-05-14T17:37:00.827Z,6.87
2023-05-14T17:39:29.090Z,3.93
2023-05-14T17:41:57.267Z,3.30
2023-05-14T17:44:25.464Z,3.43
2023-05-14T17:46:55.111Z,3.73
2023-05-14T17:49:23.268Z,3.40
2023-05-14T17:51:51.455Z,3.80
2023-05-14T17:54:19.654Z,3.50
2023-05-14T17:56:50.808Z,4.00
2023-05-14T17:59:19.141Z,3.67
2023-05-14T18:01:47.357Z,4.73
2023-05-14T18:04:16.943Z,5.43
2023-05-14T18:06:45.671Z,4.73
2023-05-14T18:09:13.831Z,6.60
2023-05-14T18:11:42.403Z,5.33
2023-05-14T18:14:10.927Z,5.50
2023-05-14T18:16:39.114Z,9.40
2023-05-14T18:19:07.383Z,8.40
2023-05-14T18:21:36.932Z,3.53
2023-05-14T18:24:05.698Z,4.53
2023-05-14T18:26:34.987Z,4.53
2023-05-14T18:29:03.175Z,3.80
2023-05-14T18:31:31.419Z,3.27
2023-05-14T18:33:59.618Z,4.40
2023-05-14T18:36:28.198Z,2.87
2023-05-14T18:38:57.815Z,4.20
2023-05-14T18:41:26.092Z,4.27
2023-05-14T18:43:54.322Z,7.33
2023-05-14T18:46:22.593Z,4.20
2023-05-14T18:48:51.264Z,5.97
2023-05-14T18:51:19.470Z,4.30
2023-05-14T18:53:47.740Z,4.17
2023-05-14T18:56:17.210Z,6.43
2023-05-14T18:58:45.394Z,5.57
2023-05-14T19:01:13.683Z,4.40
2023-05-14T19:03:42.294Z,4.60
2023-05-14T19:06:10.682Z,4.23
2023-05-14T19:08:38.859Z,7.60
2023-05-14T19:11:07.052Z,4.87
2023-05-14T19:13:36.648Z,8.43
2023-05-14T19:16:05.273Z,4.87
2023-05-14T19:18:33.726Z,4.70
2023-05-14T19:21:01.913Z,5.60
2023-05-14T19:23:31.063Z,5.87
2023-05-14T19:25:59.337Z,6.47
2023-05-14T19:28:27.645Z,5.17
2023-05-14T19:30:57.341Z,6.83
2023-05-14T19:33:26.221Z,4.17
2023-05-14T19:35:54.396Z,4.97
2023-05-14T19:38:22.585Z,6.10
2023-05-14T19:40:53.291Z,8.73
2023-05-14T19:43:21.521Z,5.60
2023-05-14T19:45:50.589Z,4.70
2023-05-14T19:48:20.241Z,5.27
2023-05-14T19:50:48.504Z,4.67
2023-05-14T19:53:16.674Z,4.37
2023-05-14T19:55:44.903Z,4.87
2023-05-14T19:58:13.082Z,8.63
2023-05-14T20:00:42.041Z,9.20
2023-05-14T20:03:10.774Z,5.73
2023-05-14T20:05:40.853Z,5.60
2023-05-14T20:08:09.254Z,5.40
2023-05-14T20:10:37.438Z,5.33
2023-05-14T20:13:06.281Z,7.27
2023-05-14T20:15:34.789Z,9.00
2023-05-14T20:18:06.151Z,6.17
2023-05-14T20:20:34.438Z,6.20
2023-05-14T20:23:03.965Z,8.50
2023-05-14T20:25:33.504Z,8.20
2023-05-14T20:28:01.906Z,7.83
2023-05-14T20:30:30.168Z,9.87
2023-05-14T20:32:58.663Z,13.60
2023-05-14T20:35:27.385Z,9.63
2023-05-14T20:37:56.269Z,10.23
2023-05-14T20:40:25.917Z,7.63
2023-05-14T20:42:54.080Z,8.00
2023-05-14T20:45:22.291Z,14.03
2023-05-14T20:47:50.528Z,10.20
2023-05-14T20:50:18.806Z,10.27
2023-05-14T20:52:47.077Z,6.00
2023-05-14T20:55:15.450Z,7.60
2023-05-14T20:57:44.978Z,7.60
2023-05-14T21:00:14.120Z,10.73
2023-05-14T21:02:42.575Z,8.10
2023-05-14T21:05:10.820Z,8.47
2023-05-14T21:07:39.368Z,7.07
2023-05-14T21:10:09.209Z,9.90
2023-05-14T21:12:37.482Z,7.90
2023-05-14T21:15:08.223Z,8.63
2023-05-14T21:17:36.414Z,8.77
2023-05-14T21:20:05.287Z,7.83
2023-05-14T21:22:33.492Z,7.70
2023-05-14T21:25:01.658Z,8.30
2023-05-14T21:27:29.902Z,8.40
2023-05-14T21:29:58.122Z,8.07
2023-05-14T21:32:27.695Z,10.40
2023-05-14T21:34:56.168Z,7.90
2023-05-14T21:37:24.482Z,10.80
2023-05-14T21:39:52.756Z,11.47
2023-05-14T21:42:21.372Z,9.33
2023-05-14T21:44:49.531Z,9.90
2023-05-14T21:47:17.848Z,9.63
2023-05-14T21:49:47.402Z,8.13
2023-05-14T21:52:15.644Z,9.63
2023-05-14T21:54:43.870Z,10.33
2023-05-14T21:57:12.040Z,11.40
2023-05-14T21:59:40.310Z,8.93
2023-05-14T22:02:08.741Z,10.97
2023-05-14T22:04:36.965Z,9.80
2023-05-14T22:07:06.569Z,11.77
2023-05-14T22:09:34.825Z,8.43
2023-05-14T22:12:02.992Z,11.03
2023-05-14T22:14:31.151Z,9.20
2023-05-14T22:16:59.375Z,11.27
2023-05-14T22:19:27.889Z,11.40
2023-05-14T22:21:56.392Z,12.53
2023-05-14T22:24:26.163Z,10.40
2023-05-14T22:26:54.664Z,10.20
2023-05-14T22:29:22.979Z,9.10
2023-05-14T22:31:51.256Z,10.57
2023-05-14T22:34:20.159Z,9.20
2023-05-14T22:36:48.361Z,9.60
2023-05-14T22:39:16.507Z,10.40
2023-05-14T22:41:46.101Z,9.20
2023-05-14T22:44:14.353Z,10.60
2023-05-14T22:46:42.750Z,12.37
2023-05-14T22:49:10.928Z,11.90
2023-05-14T22:51:39.357Z,11.20
2023-05-14T22:54:07.961Z,10.10
2023-05-14T22:56:36.645Z,9.20
2023-05-14T22:59:06.182Z,9.07
2023-05-14T23:01:34.534Z,10.07
2023-05-14T23:04:02.782Z,11.00
2023-05-14T23:06:31.362Z,11.40
2023-05-14T23:08:59.620Z,10.43
2023-05-14T23:11:28.126Z,11.23
2023-05-14T23:13:56.278Z,9.70
2023-05-14T23:16:25.957Z,10.93
2023-05-14T23:18:54.496Z,10.10
2023-05-14T23:21:23.569Z,12.70
2023-05-14T23:23:52.005Z,10.60
2023-05-14T23:26:21.477Z,11.30
2023-05-14T23:28:51.100Z,11.80
2023-05-14T23:31:19.311Z,13.57
2023-05-14T23:33:48.835Z,12.13
2023-05-14T23:36:17.034Z,11.60
2023-05-14T23:38:45.295Z,12.13
2023-05-14T23:41:13.471Z,10.90
2023-05-14T23:43:41.601Z,10.83
2023-05-14T23:46:10.158Z,10.37
2023-05-14T23:48:38.458Z,10.80
2023-05-14T23:51:08.058Z,10.37
2023-05-14T23:53:36.185Z,11.63
2023-05-14T23:56:04.465Z,10.80
2023-05-14T23:58:33.685Z,11.07
